createdAt,value
2022-08-23T00:03:26.104Z,100169.72
2022-08-23T00:08:29.359Z,100167.06
2022-08-23T00:13:47.864Z,100166.16
2022-08-23T00:18:52.588Z,100171.50
2022-08-23T00:23:55.349Z,100169.75
2022-08-23T00:28:58.034Z,100176.88
2022-08-23T00:34:02.061Z,100187.59
2022-08-23T00:39:05.543Z,100195.63
2022-08-23T00:44:29.563Z,100188.50
2022-08-23T00:49:34.943Z,100187.59
2022-08-23T00:54:39.329Z,100179.59
2022-08-23T00:59:42.252Z,100189.38
2022-08-23T01:04:50.696Z,100192.06
2022-08-23T01:09:55.775Z,100189.38
2022-08-23T01:15:00.765Z,100199.19
2022-08-23T01:20:07.761Z,100196.53
2022-08-23T01:25:18.698Z,100211.69
2022-08-23T01:30:24.567Z,100213.47
2022-08-23T01:35:35.536Z,100222.38
2022-08-23T01:40:41.355Z,100232.19
2022-08-23T01:45:44.180Z,100226.88
2022-08-23T01:50:48.401Z,100227.75
2022-08-23T01:55:52.494Z,100229.50
2022-08-23T02:00:56.400Z,100238.41
2022-08-23T02:05:59.822Z,100232.19
2022-08-23T02:11:10.091Z,100224.16
2022-08-23T02:16:15.149Z,100228.59
2022-08-23T02:21:19.169Z,100231.22
2022-08-23T02:26:31.132Z,100226.75
2022-08-23T02:31:34.656Z,100234.75
2022-08-23T02:36:37.891Z,100234.72
2022-08-23T02:41:42.672Z,100241.88
2022-08-23T02:46:47.507Z,100234.75
2022-08-23T02:51:51.099Z,100241.84
2022-08-23T02:56:55.313Z,100243.63
2022-08-23T03:01:59.324Z,100240.06
2022-08-23T03:07:07.446Z,100230.22
2022-08-23T03:12:12.813Z,100232.84
2022-08-23T03:17:20.223Z,100239.00
2022-08-23T03:22:24.261Z,100240.84
2022-08-23T03:27:31.531Z,100239.84
2022-08-23T03:32:41.358Z,100239.91
2022-08-23T03:37:55.311Z,100237.16
2022-08-23T03:43:01.224Z,100240.66
2022-08-23T03:48:05.866Z,100240.59
2022-08-23T03:53:12.323Z,100246.88
2022-08-23T03:58:18.120Z,100249.47
2022-08-23T04:03:20.855Z,100250.31
2022-08-23T04:08:34.548Z,100253.00
2022-08-23T04:13:41.507Z,100250.31
2022-08-23T04:18:44.463Z,100262.69
2022-08-23T04:23:47.976Z,100260.97
2022-08-23T04:28:52.003Z,100264.47
2022-08-23T04:33:55.572Z,100274.22
2022-08-23T04:38:58.339Z,100273.28
2022-08-23T04:44:02.657Z,100275.91
2022-08-23T04:49:06.487Z,100281.16
2022-08-23T04:54:09.303Z,100283.16
2022-08-23T04:59:19.610Z,100256.47
2022-08-23T05:04:22.361Z,100267.91
2022-08-23T05:09:25.121Z,100267.19
2022-08-23T05:14:29.146Z,100288.56
2022-08-23T05:19:32.636Z,100269.88
2022-08-23T05:24:35.292Z,100295.69
2022-08-23T05:29:39.328Z,100272.56
2022-08-23T05:34:42.689Z,100278.09
2022-08-23T05:39:46.722Z,100272.78
2022-08-23T05:44:50.744Z,100287.94
2022-08-23T05:49:55.511Z,100289.00
2022-08-23T05:54:59.028Z,100297.88
2022-08-23T06:00:40.494Z,100306.91
2022-08-23T06:05:44.384Z,100314.88
2022-08-23T06:10:49.316Z,100319.44
2022-08-23T06:16:00.719Z,100321.19
2022-08-23T06:21:18.288Z,100317.66
2022-08-23T06:26:26.043Z,100323.97
2022-08-23T06:31:48.932Z,100332.97
2022-08-23T06:37:01.399Z,100332.97
2022-08-23T06:42:38.324Z,100333.00
2022-08-23T06:47:43.276Z,100338.34
2022-08-23T06:52:48.219Z,100341.94
2022-08-23T06:58:08.518Z,100356.25
2022-08-23T07:03:37.237Z,100349.13
2022-08-23T07:08:59.527Z,100369.59
2022-08-23T07:14:03.892Z,100377.59
2022-08-23T07:19:09.063Z,100386.53
2022-08-23T07:24:13.443Z,100388.34
2022-08-23T07:29:17.439Z,100398.97
2022-08-23T07:34:22.440Z,100420.50
2022-08-23T07:39:26.311Z,100408.81
2022-08-23T07:44:30.006Z,100414.00
2022-08-23T07:49:35.357Z,100417.41
2022-08-23T07:54:39.581Z,100421.81
2022-08-23T08:00:17.628Z,100428.97
2022-08-23T08:05:33.759Z,100423.84
2022-08-23T08:10:38.252Z,100429.28
2022-08-23T08:15:42.363Z,100452.53
2022-08-23T08:20:50.171Z,100439.09
2022-08-23T08:26:22.918Z,100438.19
2022-08-23T08:31:30.514Z,100440.88
2022-08-23T08:36:38.097Z,100448.88
2022-08-23T08:42:04.602Z,100442.44
2022-08-23T08:47:10.543Z,100449.16
2022-08-23T08:52:19.643Z,100449.75
2022-08-23T08:57:27.413Z,100460.44
2022-08-23T09:02:33.729Z,100447.47
2022-08-23T09:07:48.298Z,100449.38
2022-08-23T09:12:57.377Z,100465.91
2022-08-23T09:18:09.032Z,100453.19
2022-08-23T09:23:18.424Z,100447.75
2022-08-23T09:28:22.301Z,100451.91
2022-08-23T09:33:27.100Z,100445.97
2022-08-23T09:38:33.825Z,100451.53
2022-08-23T09:43:47.109Z,100450.50
2022-08-23T09:48:55.043Z,100443.97
2022-08-23T09:54:09.054Z,100459.78
2022-08-23T09:59:34.067Z,100444.06
2022-08-23T10:04:47.202Z,100441.22
2022-08-23T10:09:52.043Z,100440.75
2022-08-23T10:14:55.446Z,100429.53
2022-08-23T10:20:05.639Z,100427.50
2022-08-23T10:25:16.130Z,100431.47
2022-08-23T10:30:20.327Z,100427.53
2022-08-23T10:35:38.227Z,100422.34
2022-08-23T10:40:46.734Z,100437.16
2022-08-23T10:45:50.390Z,100416.84
2022-08-23T10:51:06.648Z,100419.41
2022-08-23T10:56:16.164Z,100421.94
2022-08-23T11:01:27.458Z,100408.06
2022-08-23T11:06:52.072Z,100411.75
2022-08-23T11:12:23.060Z,100416.09
2022-08-23T11:17:28.679Z,100408.03
2022-08-23T11:22:33.525Z,100408.56
2022-08-23T11:27:40.811Z,100401.16
2022-08-23T11:32:47.845Z,100397.84
2022-08-23T11:38:01.627Z,100395.34
2022-08-23T11:43:15.149Z,100397.00
2022-08-23T11:48:22.976Z,100399.03
2022-08-23T11:53:50.168Z,100377.38
2022-08-23T11:59:09.087Z,100383.38
2022-08-23T12:04:15.119Z,100380.31
2022-08-23T12:09:51.138Z,100377.53
2022-08-23T12:14:57.409Z,100379.13
2022-08-23T12:20:02.040Z,100373.88
2022-08-23T12:25:08.858Z,100370.78
2022-08-23T12:30:22.649Z,100367.13
2022-08-23T12:35:33.568Z,100375.13
2022-08-23T12:40:42.111Z,100368.75
2022-08-23T12:45:50.191Z,100375.66
2022-08-23T12:50:56.865Z,100365.38
2022-08-23T12:56:04.390Z,100370.72
2022-08-23T13:01:18.206Z,100363.25
2022-08-23T13:06:23.444Z,100364.88
2022-08-23T13:11:27.008Z,100362.41
2022-08-23T13:16:33.709Z,100376.88
2022-08-23T13:21:39.574Z,100363.47
2022-08-23T13:26:44.205Z,100356.16
2022-08-23T13:32:03.178Z,100354.88
2022-08-23T13:37:17.525Z,100349.19
2022-08-23T13:42:29.489Z,100349.19
2022-08-23T13:47:35.843Z,100350.34
2022-08-23T13:53:03.086Z,100353.31
2022-08-23T13:58:03.209Z,100348.28
2022-08-23T14:03:07.829Z,100343.59
2022-08-23T14:08:10.821Z,100344.50
2022-08-23T14:13:14.373Z,100345.88
2022-08-23T14:18:18.912Z,100345.59
2022-08-23T14:23:21.565Z,100339.78
2022-08-23T14:28:26.169Z,100338.38
2022-08-23T14:33:33.660Z,100337.81
2022-08-23T14:38:36.389Z,100327.03
2022-08-23T14:43:39.066Z,100331.66
2022-08-23T14:48:46.625Z,100336.22
2022-08-23T14:53:50.344Z,100328.00
2022-08-23T14:58:53.043Z,100343.25
2022-08-23T15:03:57.086Z,100339.59
2022-08-23T15:08:59.796Z,100327.53
2022-08-23T15:14:02.655Z,100331.00
2022-08-23T15:19:07.508Z,100325.09
2022-08-23T15:24:10.154Z,100330.16
2022-08-23T15:29:12.844Z,100333.00
2022-08-23T15:34:16.866Z,100332.19
2022-08-23T15:39:20.853Z,100339.53
2022-08-23T15:44:23.549Z,100329.53
2022-08-23T15:49:32.850Z,100328.34
2022-08-23T15:54:38.150Z,100324.19
2022-08-23T15:59:40.875Z,100324.06
2022-08-23T16:04:44.955Z,100324.44
2022-08-23T16:09:47.710Z,100314.72
2022-08-23T16:14:50.370Z,100310.75
2022-08-23T16:19:54.423Z,100326.41
2022-08-23T16:24:57.318Z,100318.00
2022-08-23T16:30:00.001Z,100321.91
2022-08-23T16:35:04.485Z,100322.13
2022-08-23T16:40:08.836Z,100317.50
2022-08-23T16:45:12.324Z,100317.13
2022-08-23T16:50:16.428Z,100322.16
2022-08-23T16:55:19.294Z,100321.84
2022-08-23T17:00:22.254Z,100319.28
2022-08-23T17:05:26.775Z,100324.69
2022-08-23T17:10:29.682Z,100337.66
2022-08-23T17:15:34.408Z,100326.28
2022-08-23T17:20:39.685Z,100310.94
2022-08-23T17:25:47.453Z,100315.91
2022-08-23T17:30:50.251Z,100327.69
2022-08-23T17:35:54.544Z,100330.75
2022-08-23T17:40:57.510Z,100335.47
2022-08-23T17:46:00.208Z,100341.38
2022-08-23T17:51:04.324Z,100358.03
2022-08-23T17:56:08.014Z,100354.63
2022-08-23T18:01:15.318Z,100357.75
2022-08-23T18:06:19.901Z,100352.66
2022-08-23T18:11:22.861Z,100362.22
2022-08-23T18:16:31.726Z,100365.38
2022-08-23T18:21:38.913Z,100370.28
2022-08-23T18:26:59.685Z,100373.25
2022-08-23T18:32:02.438Z,100376.69
2022-08-23T18:37:07.172Z,100379.81
2022-08-23T18:42:10.547Z,100380.06
2022-08-23T18:47:13.248Z,100393.09
2022-08-23T18:52:17.332Z,100404.13
2022-08-23T18:57:20.032Z,100404.63
2022-08-23T19:02:24.037Z,100405.81
2022-08-23T19:07:28.181Z,100412.22
2022-08-23T19:12:30.824Z,100420.66
2022-08-23T19:17:33.488Z,100425.31
2022-08-23T19:22:37.958Z,100431.72
2022-08-23T19:27:41.467Z,100442.69
2022-08-23T19:32:44.998Z,100440.56
2022-08-23T19:37:49.435Z,100442.66
2022-08-23T19:42:52.104Z,100443.00
2022-08-23T19:47:54.838Z,100449.22
2022-08-23T19:52:59.337Z,100448.44
2022-08-23T19:58:02.922Z,100448.47
2022-08-23T20:03:05.760Z,100452.94
2022-08-23T20:08:09.813Z,100466.34
2022-08-23T20:13:12.707Z,100469.25
2022-08-23T20:18:15.443Z,100480.84
2022-08-23T20:23:36.795Z,100464.88
2022-08-23T20:28:39.927Z,100467.66
2022-08-23T20:34:02.569Z,100478.56
2022-08-23T20:39:06.697Z,100477.81
2022-08-23T20:44:09.666Z,100478.06
2022-08-23T20:49:12.820Z,100482.59
2022-08-23T20:54:16.993Z,100483.59
2022-08-23T20:59:20.392Z,100483.91
2022-08-23T21:04:29.312Z,100491.38
2022-08-23T21:09:34.381Z,100501.25
2022-08-23T21:14:37.029Z,100508.75
2022-08-23T21:19:39.677Z,100506.13
2022-08-23T21:24:43.665Z,100509.75
2022-08-23T21:29:46.306Z,100515.09
2022-08-23T21:34:48.937Z,100516.09
2022-08-23T21:39:52.980Z,100502.63
2022-08-23T21:44:55.631Z,100509.94
2022-08-23T21:49:58.667Z,100501.94
2022-08-23T21:55:02.644Z,100511.81
2022-08-23T22:00:07.521Z,100507.47
2022-08-23T22:05:15.784Z,100510.13
2022-08-23T22:10:20.939Z,100516.41
2022-08-23T22:15:25.534Z,100508.50
2022-08-23T22:20:28.358Z,100524.59
2022-08-23T22:25:33.085Z,100510.31
2022-08-23T22:30:35.776Z,100506.81
2022-08-23T22:35:38.660Z,100515.75
2022-08-23T22:40:48.362Z,100514.88
2022-08-23T22:45:52.417Z,100513.09
2022-08-23T22:51:06.149Z,100524.78
2022-08-23T22:56:12.248Z,100529.25
2022-08-23T23:01:19.639Z,100536.50
2022-08-23T23:06:24.413Z,100540.06
2022-08-23T23:11:29.394Z,100537.41
2022-08-23T23:16:32.195Z,100532.13
2022-08-23T23:21:36.276Z,100530.31
2022-08-23T23:26:40.453Z,100536.56
2022-08-23T23:31:43.164Z,100539.28
2022-08-23T23:36:46.325Z,100528.53
2022-08-23T23:41:50.314Z,100531.28
2022-08-23T23:46:52.981Z,100542.88
2022-08-23T23:51:55.608Z,100546.47
2022-08-23T23:56:59.733Z,100561.66
